sensor_id;sensor_type;location;lat;lon;timestamp;temperature;humidity
45803;DHT22;31504;51.716;9.184;2023-05-14T00:01:24;20.50;54.90
45803;DHT22;31504;51.716;9.184;2023-05-14T00:04:24;20.60;54.90
45803;DHT22;31504;51.716;9.184;2023-05-14T00:07:25;20.60;55.10
45803;DHT22;31504;51.716;9.184;2023-05-14T00:10:29;20.60;55.00
45803;DHT22;31504;51.716;9.184;2023-05-14T00:13:30;20.60;55.00
45803;DHT22;31504;51.716;9.184;2023-05-14T00:16:30;20.60;55.10
45803;DHT22;31504;51.716;9.184;2023-05-14T00:19:31;20.60;55.00
45803;DHT22;31504;51.716;9.184;2023-05-14T00:22:31;20.50;55.10
45803;DHT22;31504;51.716;9.184;2023-05-14T00:25:32;20.60;55.20
45803;DHT22;31504;51.716;9.184;2023-05-14T00:28:32;20.60;55.20
45803;DHT22;31504;51.716;9.184;2023-05-14T00:31:33;20.60;55.00
45803;DHT22;31504;51.716;9.184;2023-05-14T00:34:33;20.60;55.10
45803;DHT22;31504;51.716;9.184;2023-05-14T00:37:34;20.60;55.30
45803;DHT22;31504;51.716;9.184;2023-05-14T00:40:35;20.60;55.10
45803;DHT22;31504;51.716;9.184;2023-05-14T00:43:36;20.50;55.20
45803;DHT22;31504;51.716;9.184;2023-05-14T00:46:36;20.60;55.20
45803;DHT22;31504;51.716;9.184;2023-05-14T00:49:37;20.60;55.10
45803;DHT22;31504;51.716;9.184;2023-05-14T00:52:39;20.60;55.20
45803;DHT22;31504;51.716;9.184;2023-05-14T00:55:40;20.60;55.20
45803;DHT22;31504;51.716;9.184;2023-05-14T00:58:41;20.60;55.20
45803;DHT22;31504;51.716;9.184;2023-05-14T01:01:41;20.60;55.30
45803;DHT22;31504;51.716;9.184;2023-05-14T01:04:41;20.60;55.20
45803;DHT22;31504;51.716;9.184;2023-05-14T01:07:53;20.50;55.20
45803;DHT22;31504;51.716;9.184;2023-05-14T01:11:02;20.60;55.30
45803;DHT22;31504;51.716;9.184;2023-05-14T01:14:16;20.60;55.20
45803;DHT22;31504;51.716;9.184;2023-05-14T01:17:21;20.60;55.30
45803;DHT22;31504;51.716;9.184;2023-05-14T01:20:22;20.60;55.40
45803;DHT22;31504;51.716;9.184;2023-05-14T01:23:22;20.60;55.30
45803;DHT22;31504;51.716;9.184;2023-05-14T01:26:22;20.60;55.30
45803;DHT22;31504;51.716;9.184;2023-05-14T01:29:23;20.60;55.30
45803;DHT22;31504;51.716;9.184;2023-05-14T01:32:25;20.60;55.90
45803;DHT22;31504;51.716;9.184;2023-05-14T01:35:27;20.60;55.30
45803;DHT22;31504;51.716;9.184;2023-05-14T01:38:28;20.50;55.30
45803;DHT22;31504;51.716;9.184;2023-05-14T01:41:30;20.60;55.30
45803;DHT22;31504;51.716;9.184;2023-05-14T01:44:32;20.60;55.30
45803;DHT22;31504;51.716;9.184;2023-05-14T01:47:34;20.60;55.30
45803;DHT22;31504;51.716;9.184;2023-05-14T01:50:34;20.50;55.30
45803;DHT22;31504;51.716;9.184;2023-05-14T01:53:35;20.60;55.40
45803;DHT22;31504;51.716;9.184;2023-05-14T01:56:35;20.60;55.40
45803;DHT22;31504;51.716;9.184;2023-05-14T01:59:36;20.60;55.30
45803;DHT22;31504;51.716;9.184;2023-05-14T02:02:36;20.60;55.30
45803;DHT22;31504;51.716;9.184;2023-05-14T02:05:36;20.60;55.40
45803;DHT22;31504;51.716;9.184;2023-05-14T02:08:37;20.60;55.30
45803;DHT22;31504;51.716;9.184;2023-05-14T02:11:37;20.50;55.40
45803;DHT22;31504;51.716;9.184;2023-05-14T02:14:38;20.50;55.30
45803;DHT22;31504;51.716;9.184;2023-05-14T02:17:38;20.60;55.50
45803;DHT22;31504;51.716;9.184;2023-05-14T02:20:38;20.60;55.30
45803;DHT22;31504;51.716;9.184;2023-05-14T02:23:39;20.60;55.40
45803;DHT22;31504;51.716;9.184;2023-05-14T02:26:39;20.50;55.30
45803;DHT22;31504;51.716;9.184;2023-05-14T02:29:40;20.50;55.30
45803;DHT22;31504;51.716;9.184;2023-05-14T02:32:40;20.50;55.60
45803;DHT22;31504;51.716;9.184;2023-05-14T02:35:41;20.50;55.30
45803;DHT22;31504;51.716;9.184;2023-05-14T02:38:41;20.60;55.40
45803;DHT22;31504;51.716;9.184;2023-05-14T02:41:41;20.60;55.30
45803;DHT22;31504;51.716;9.184;2023-05-14T02:44:42;20.50;55.30
45803;DHT22;31504;51.716;9.184;2023-05-14T02:47:42;20.60;55.30
45803;DHT22;31504;51.716;9.184;2023-05-14T02:50:43;20.50;55.20
45803;DHT22;31504;51.716;9.184;2023-05-14T02:53:43;20.50;55.30
45803;DHT22;31504;51.716;9.184;2023-05-14T02:56:44;20.50;55.30
45803;DHT22;31504;51.716;9.184;2023-05-14T02:59:44;20.50;55.30
45803;DHT22;31504;51.716;9.184;2023-05-14T03:02:44;20.50;55.30
45803;DHT22;31504;51.716;9.184;2023-05-14T03:05:45;20.50;55.30
45803;DHT22;31504;51.716;9.184;2023-05-14T03:08:45;20.50;55.30
45803;DHT22;31504;51.716;9.184;2023-05-14T03:11:46;20.50;55.30
45803;DHT22;31504;51.716;9.184;2023-05-14T03:14:46;20.50;55.30
45803;DHT22;31504;51.716;9.184;2023-05-14T03:17:47;20.50;55.30
45803;DHT22;31504;51.716;9.184;2023-05-14T03:20:47;20.60;55.30
45803;DHT22;31504;51.716;9.184;2023-05-14T03:23:47;20.50;55.30
45803;DHT22;31504;51.716;9.184;2023-05-14T03:26:48;20.50;55.30
45803;DHT22;31504;51.716;9.184;2023-05-14T03:29:48;20.50;55.30
45803;DHT22;31504;51.716;9.184;2023-05-14T03:32:49;20.50;55.30
45803;DHT22;31504;51.716;9.184;2023-05-14T03:35:49;20.50;55.30
45803;DHT22;31504;51.716;9.184;2023-05-14T03:38:50;20.50;55.30
45803;DHT22;31504;51.716;9.184;2023-05-14T03:41:51;20.50;55.30
45803;DHT22;31504;51.716;9.184;2023-05-14T03:44:51;20.50;55.30
45803;DHT22;31504;51.716;9.184;2023-05-14T03:47:52;20.50;55.30
45803;DHT22;31504;51.716;9.184;2023-05-14T03:50:52;20.50;55.30
45803;DHT22;31504;51.716;9.184;2023-05-14T03:53:53;20.50;55.20
45803;DHT22;31504;51.716;9.184;2023-05-14T03:56:53;20.50;55.30
45803;DHT22;31504;51.716;9.184;2023-05-14T03:59:53;20.50;55.30
45803;DHT22;31504;51.716;9.184;2023-05-14T04:02:54;20.50;55.30
45803;DHT22;31504;51.716;9.184;2023-05-14T04:05:54;20.50;55.20
45803;DHT22;31504;51.716;9.184;2023-05-14T04:08:55;20.50;55.30
45803;DHT22;31504;51.716;9.184;2023-05-14T04:11:55;20.50;55.30
45803;DHT22;31504;51.716;9.184;2023-05-14T04:14:56;20.50;55.20
45803;DHT22;31504;51.716;9.184;2023-05-14T04:17:57;20.50;55.30
45803;DHT22;31504;51.716;9.184;2023-05-14T04:20:57;20.50;55.30
45803;DHT22;31504;51.716;9.184;2023-05-14T04:23:58;20.50;55.30
45803;DHT22;31504;51.716;9.184;2023-05-14T04:26:58;20.50;55.20
45803;DHT22;31504;51.716;9.184;2023-05-14T04:29:59;20.50;55.20
45803;DHT22;31504;51.716;9.184;2023-05-14T04:32:59;20.50;55.20
45803;DHT22;31504;51.716;9.184;2023-05-14T04:35:59;20.50;55.20
45803;DHT22;31504;51.716;9.184;2023-05-14T04:39:00;20.50;55.20
45803;DHT22;31504;51.716;9.184;2023-05-14T04:42:00;20.50;55.20
45803;DHT22;31504;51.716;9.184;2023-05-14T04:45:01;20.50;55.20
45803;DHT22;31504;51.716;9.184;2023-05-14T04:48:02;20.50;55.20
45803;DHT22;31504;51.716;9.184;2023-05-14T04:51:03;20.50;55.20
45803;DHT22;31504;51.716;9.184;2023-05-14T04:54:03;20.50;55.20
45803;DHT22;31504;51.716;9.184;2023-05-14T04:57:04;20.50;55.20
45803;DHT22;31504;51.716;9.184;2023-05-14T05:00:04;20.50;55.20
45803;DHT22;31504;51.716;9.184;2023-05-14T05:03:05;20.50;55.20
45803;DHT22;31504;51.716;9.184;2023-05-14T05:06:06;20.50;55.10
45803;DHT22;31504;51.716;9.184;2023-05-14T05:09:06;20.50;55.10
45803;DHT22;31504;51.716;9.184;2023-05-14T05:12:08;20.70;51.50
45803;DHT22;31504;51.716;9.184;2023-05-14T05:15:08;20.90;50.80
45803;DHT22;31504;51.716;9.184;2023-05-14T05:18:09;20.90;49.70
45803;DHT22;31504;51.716;9.184;2023-05-14T05:21:09;20.80;49.10
45803;DHT22;31504;51.716;9.184;2023-05-14T05:24:10;20.70;48.70
45803;DHT22;31504;51.716;9.184;2023-05-14T05:27:10;20.60;48.10
45803;DHT22;31504;51.716;9.184;2023-05-14T05:30:11;20.60;48.10
45803;DHT22;31504;51.716;9.184;2023-05-14T05:33:11;20.50;53.20
45803;DHT22;31504;51.716;9.184;2023-05-14T05:36:12;20.50;53.60
45803;DHT22;31504;51.716;9.184;2023-05-14T05:39:12;20.50;54.00
45803;DHT22;31504;51.716;9.184;2023-05-14T05:42:13;20.50;54.20
45803;DHT22;31504;51.716;9.184;2023-05-14T05:45:13;20.50;54.30
45803;DHT22;31504;51.716;9.184;2023-05-14T05:48:14;20.50;54.40
45803;DHT22;31504;51.716;9.184;2023-05-14T05:51:14;20.40;54.30
45803;DHT22;31504;51.716;9.184;2023-05-14T05:54:14;20.50;54.40
45803;DHT22;31504;51.716;9.184;2023-05-14T05:57:15;20.50;54.40
45803;DHT22;31504;51.716;9.184;2023-05-14T06:00:16;20.50;54.40
45803;DHT22;31504;51.716;9.184;2023-05-14T06:03:16;20.50;54.50
45803;DHT22;31504;51.716;9.184;2023-05-14T06:06:16;20.50;54.60
45803;DHT22;31504;51.716;9.184;2023-05-14T06:09:17;20.50;54.60
45803;DHT22;31504;51.716;9.184;2023-05-14T06:12:17;20.50;54.70
45803;DHT22;31504;51.716;9.184;2023-05-14T06:15:18;20.50;54.60
45803;DHT22;31504;51.716;9.184;2023-05-14T06:18:18;20.50;54.70
45803;DHT22;31504;51.716;9.184;2023-05-14T06:21:19;20.50;54.70
45803;DHT22;31504;51.716;9.184;2023-05-14T06:24:19;20.50;54.70
45803;DHT22;31504;51.716;9.184;2023-05-14T06:27:20;20.50;54.70
45803;DHT22;31504;51.716;9.184;2023-05-14T06:30:20;20.50;54.70
45803;DHT22;31504;51.716;9.184;2023-05-14T06:33:21;20.50;54.80
45803;DHT22;31504;51.716;9.184;2023-05-14T06:36:28;20.50;54.70
45803;DHT22;31504;51.716;9.184;2023-05-14T06:39:29;20.50;54.70
45803;DHT22;31504;51.716;9.184;2023-05-14T06:42:29;20.50;54.70
45803;DHT22;31504;51.716;9.184;2023-05-14T06:45:30;20.50;54.80
45803;DHT22;31504;51.716;9.184;2023-05-14T06:48:30;20.50;54.80
45803;DHT22;31504;51.716;9.184;2023-05-14T06:51:31;20.50;54.70
45803;DHT22;31504;51.716;9.184;2023-05-14T06:54:31;20.50;54.70
45803;DHT22;31504;51.716;9.184;2023-05-14T06:57:32;20.50;54.40
45803;DHT22;31504;51.716;9.184;2023-05-14T07:00:33;20.50;54.60
45803;DHT22;31504;51.716;9.184;2023-05-14T07:03:33;20.50;54.60
45803;DHT22;31504;51.716;9.184;2023-05-14T07:06:34;20.50;54.60
45803;DHT22;31504;51.716;9.184;2023-05-14T07:09:34;20.50;54.60
45803;DHT22;31504;51.716;9.184;2023-05-14T07:12:35;20.50;54.70
45803;DHT22;31504;51.716;9.184;2023-05-14T07:15:35;20.50;54.80
45803;DHT22;31504;51.716;9.184;2023-05-14T07:18:36;20.50;54.70
45803;DHT22;31504;51.716;9.184;2023-05-14T07:21:36;20.50;54.60
45803;DHT22;31504;51.716;9.184;2023-05-14T07:24:37;20.60;54.50
45803;DHT22;31504;51.716;9.184;2023-05-14T07:27:37;20.60;54.50
45803;DHT22;31504;51.716;9.184;2023-05-14T07:30:37;20.60;54.50
45803;DHT22;31504;51.716;9.184;2023-05-14T07:33:38;20.50;54.60
45803;DHT22;31504;51.716;9.184;2023-05-14T07:36:38;20.50;54.40
45803;DHT22;31504;51.716;9.184;2023-05-14T07:39:39;20.60;54.00
45803;DHT22;31504;51.716;9.184;2023-05-14T07:42:40;20.60;53.80
45803;DHT22;31504;51.716;9.184;2023-05-14T07:45:41;20.70;53.70
45803;DHT22;31504;51.716;9.184;2023-05-14T07:48:41;20.80;53.60
45803;DHT22;31504;51.716;9.184;2023-05-14T07:51:42;20.70;53.90
45803;DHT22;31504;51.716;9.184;2023-05-14T07:54:42;20.70;53.90
45803;DHT22;31504;51.716;9.184;2023-05-14T07:57:42;20.70;53.60
45803;DHT22;31504;51.716;9.184;2023-05-14T08:00:43;20.80;53.70
45803;DHT22;31504;51.716;9.184;2023-05-14T08:03:43;20.70;53.60
45803;DHT22;31504;51.716;9.184;2023-05-14T08:06:44;20.80;53.60
45803;DHT22;31504;51.716;9.184;2023-05-14T08:09:44;20.70;53.90
45803;DHT22;31504;51.716;9.184;2023-05-14T08:12:45;20.70;53.90
45803;DHT22;31504;51.716;9.184;2023-05-14T08:15:45;20.70;53.50
45803;DHT22;31504;51.716;9.184;2023-05-14T08:18:46;20.80;53.70
45803;DHT22;31504;51.716;9.184;2023-05-14T08:21:46;20.80;53.60
45803;DHT22;31504;51.716;9.184;2023-05-14T08:24:47;20.80;53.50
45803;DHT22;31504;51.716;9.184;2023-05-14T08:27:48;20.90;53.50
45803;DHT22;31504;51.716;9.184;2023-05-14T08:30:48;20.90;53.40
45803;DHT22;31504;51.716;9.184;2023-05-14T08:33:48;20.90;53.40
45803;DHT22;31504;51.716;9.184;2023-05-14T08:36:49;20.90;53.30
45803;DHT22;31504;51.716;9.184;2023-05-14T08:39:50;20.90;53.30
45803;DHT22;31504;51.716;9.184;2023-05-14T08:42:50;20.80;53.40
45803;DHT22;31504;51.716;9.184;2023-05-14T08:45:53;20.90;53.40
45803;DHT22;31504;51.716;9.184;2023-05-14T08:48:59;20.90;53.30
45803;DHT22;31504;51.716;9.184;2023-05-14T08:52:04;20.90;53.30
45803;DHT22;31504;51.716;9.184;2023-05-14T08:55:04;20.90;53.30
45803;DHT22;31504;51.716;9.184;2023-05-14T08:58:05;20.90;53.30
45803;DHT22;31504;51.716;9.184;2023-05-14T09:01:06;20.90;53.30
45803;DHT22;31504;51.716;9.184;2023-05-14T09:04:06;21.00;53.20
45803;DHT22;31504;51.716;9.184;2023-05-14T09:07:07;21.00;53.20
45803;DHT22;31504;51.716;9.184;2023-05-14T09:10:08;21.00;53.10
45803;DHT22;31504;51.716;9.184;2023-05-14T09:13:09;21.00;53.20
45803;DHT22;31504;51.716;9.184;2023-05-14T09:16:09;21.00;53.30
45803;DHT22;31504;51.716;9.184;2023-05-14T09:19:10;21.00;53.20
45803;DHT22;31504;51.716;9.184;2023-05-14T09:22:11;21.00;53.20
45803;DHT22;31504;51.716;9.184;2023-05-14T09:25:12;21.00;53.30
45803;DHT22;31504;51.716;9.184;2023-05-14T09:28:15;21.00;53.30
45803;DHT22;31504;51.716;9.184;2023-05-14T09:31:15;21.00;53.20
45803;DHT22;31504;51.716;9.184;2023-05-14T09:34:32;21.00;53.20
45803;DHT22;31504;51.716;9.184;2023-05-14T09:37:34;21.00;53.20
45803;DHT22;31504;51.716;9.184;2023-05-14T09:40:35;21.00;53.20
45803;DHT22;31504;51.716;9.184;2023-05-14T09:43:35;21.00;53.20
45803;DHT22;31504;51.716;9.184;2023-05-14T09:46:36;21.00;53.20
45803;DHT22;31504;51.716;9.184;2023-05-14T09:49:36;21.00;53.10
45803;DHT22;31504;51.716;9.184;2023-05-14T09:52:37;21.10;53.10
45803;DHT22;31504;51.716;9.184;2023-05-14T09:55:38;21.10;53.10
45803;DHT22;31504;51.716;9.184;2023-05-14T09:58:38;21.10;53.10
45803;DHT22;31504;51.716;9.184;2023-05-14T10:01:39;21.10;53.20
45803;DHT22;31504;51.716;9.184;2023-05-14T10:04:41;21.10;53.20
45803;DHT22;31504;51.716;9.184;2023-05-14T10:07:43;21.10;53.10
45803;DHT22;31504;51.716;9.184;2023-05-14T10:10:45;21.10;53.10
45803;DHT22;31504;51.716;9.184;2023-05-14T10:13:49;21.10;53.10
45803;DHT22;31504;51.716;9.184;2023-05-14T10:16:55;21.10;53.10
45803;DHT22;31504;51.716;9.184;2023-05-14T10:19:56;21.10;53.20
45803;DHT22;31504;51.716;9.184;2023-05-14T10:22:57;21.10;53.20
45803;DHT22;31504;51.716;9.184;2023-05-14T10:25:58;21.10;53.20
45803;DHT22;31504;51.716;9.184;2023-05-14T10:28:59;21.10;53.20
45803;DHT22;31504;51.716;9.184;2023-05-14T10:32:02;21.20;53.10
45803;DHT22;31504;51.716;9.184;2023-05-14T10:35:13;21.20;53.10
45803;DHT22;31504;51.716;9.184;2023-05-14T10:38:14;21.20;53.10
45803;DHT22;31504;51.716;9.184;2023-05-14T10:41:15;21.20;53.20
45803;DHT22;31504;51.716;9.184;2023-05-14T10:44:20;21.10;53.20
45803;DHT22;31504;51.716;9.184;2023-05-14T10:47:21;21.10;53.30
45803;DHT22;31504;51.716;9.184;2023-05-14T10:50:21;21.10;53.30
45803;DHT22;31504;51.716;9.184;2023-05-14T10:53:36;21.10;53.30
45803;DHT22;31504;51.716;9.184;2023-05-14T10:56:37;21.10;53.30
45803;DHT22;31504;51.716;9.184;2023-05-14T10:59:39;21.10;53.30
45803;DHT22;31504;51.716;9.184;2023-05-14T11:02:41;21.10;53.30
45803;DHT22;31504;51.716;9.184;2023-05-14T11:05:41;21.20;53.30
45803;DHT22;31504;51.716;9.184;2023-05-14T11:08:43;21.00;53.40
45803;DHT22;31504;51.716;9.184;2023-05-14T11:11:43;21.00;53.60
45803;DHT22;31504;51.716;9.184;2023-05-14T11:14:44;21.10;53.40
45803;DHT22;31504;51.716;9.184;2023-05-14T11:17:46;21.20;53.00
45803;DHT22;31504;51.716;9.184;2023-05-14T11:20:46;21.30;52.90
45803;DHT22;31504;51.716;9.184;2023-05-14T11:23:47;21.30;52.60
45803;DHT22;31504;51.716;9.184;2023-05-14T11:26:48;21.20;52.50
45803;DHT22;31504;51.716;9.184;2023-05-14T11:29:49;21.20;52.10
45803;DHT22;31504;51.716;9.184;2023-05-14T11:32:49;21.20;51.80
45803;DHT22;31504;51.716;9.184;2023-05-14T11:35:50;21.10;52.20
45803;DHT22;31504;51.716;9.184;2023-05-14T11:38:51;21.10;52.10
45803;DHT22;31504;51.716;9.184;2023-05-14T11:41:51;21.10;52.20
45803;DHT22;31504;51.716;9.184;2023-05-14T11:44:52;21.10;52.20
45803;DHT22;31504;51.716;9.184;2023-05-14T11:47:53;21.10;52.30
45803;DHT22;31504;51.716;9.184;2023-05-14T11:50:56;21.10;52.30
45803;DHT22;31504;51.716;9.184;2023-05-14T11:53:57;21.10;52.30
45803;DHT22;31504;51.716;9.184;2023-05-14T11:57:01;21.10;52.40
45803;DHT22;31504;51.716;9.184;2023-05-14T12:00:01;21.20;52.40
45803;DHT22;31504;51.716;9.184;2023-05-14T12:03:03;21.20;52.40
45803;DHT22;31504;51.716;9.184;2023-05-14T12:06:05;21.20;52.50
45803;DHT22;31504;51.716;9.184;2023-05-14T12:09:06;21.20;52.60
45803;DHT22;31504;51.716;9.184;2023-05-14T12:12:07;21.20;52.60
45803;DHT22;31504;51.716;9.184;2023-05-14T12:15:11;21.20;52.60
45803;DHT22;31504;51.716;9.184;2023-05-14T12:18:12;21.10;52.70
45803;DHT22;31504;51.716;9.184;2023-05-14T12:21:13;21.20;52.70
45803;DHT22;31504;51.716;9.184;2023-05-14T12:24:17;21.20;52.70
45803;DHT22;31504;51.716;9.184;2023-05-14T12:27:20;21.20;52.80
45803;DHT22;31504;51.716;9.184;2023-05-14T12:30:21;21.20;52.90
45803;DHT22;31504;51.716;9.184;2023-05-14T12:33:22;21.30;52.80
45803;DHT22;31504;51.716;9.184;2023-05-14T12:36:23;21.20;52.80
45803;DHT22;31504;51.716;9.184;2023-05-14T12:39:23;21.20;52.80
45803;DHT22;31504;51.716;9.184;2023-05-14T12:42:24;21.30;52.90
45803;DHT22;31504;51.716;9.184;2023-05-14T12:45:26;21.30;53.00
45803;DHT22;31504;51.716;9.184;2023-05-14T12:48:26;21.20;53.00
45803;DHT22;31504;51.716;9.184;2023-05-14T12:51:27;21.20;52.90
45803;DHT22;31504;51.716;9.184;2023-05-14T12:54:27;21.30;52.90
45803;DHT22;31504;51.716;9.184;2023-05-14T12:57:28;21.30;52.90
45803;DHT22;31504;51.716;9.184;2023-05-14T13:00:29;21.20;53.00
45803;DHT22;31504;51.716;9.184;2023-05-14T13:03:29;21.20;53.10
45803;DHT22;31504;51.716;9.184;2023-05-14T13:06:30;21.20;53.20
45803;DHT22;31504;51.716;9.184;2023-05-14T13:09:30;21.10;53.30
45803;DHT22;31504;51.716;9.184;2023-05-14T13:12:31;21.20;53.20
45803;DHT22;31504;51.716;9.184;2023-05-14T13:15:31;21.20;53.10
45803;DHT22;31504;51.716;9.184;2023-05-14T13:18:32;21.20;53.20
45803;DHT22;31504;51.716;9.184;2023-05-14T13:21:33;21.20;53.20
45803;DHT22;31504;51.716;9.184;2023-05-14T13:24:34;21.20;53.20
45803;DHT22;31504;51.716;9.184;2023-05-14T13:27:34;21.20;53.20
45803;DHT22;31504;51.716;9.184;2023-05-14T13:30:36;21.20;53.20
45803;DHT22;31504;51.716;9.184;2023-05-14T13:33:38;21.20;53.30
45803;DHT22;31504;51.716;9.184;2023-05-14T13:36:40;21.20;53.30
45803;DHT22;31504;51.716;9.184;2023-05-14T13:39:42;21.10;53.40
45803;DHT22;31504;51.716;9.184;2023-05-14T13:42:43;21.10;53.40
45803;DHT22;31504;51.716;9.184;2023-05-14T13:45:43;21.20;53.40
45803;DHT22;31504;51.716;9.184;2023-05-14T13:48:43;21.20;53.30
45803;DHT22;31504;51.716;9.184;2023-05-14T13:51:44;21.20;53.30
45803;DHT22;31504;51.716;9.184;2023-05-14T13:54:44;21.20;53.90
45803;DHT22;31504;51.716;9.184;2023-05-14T13:57:45;21.20;53.30
45803;DHT22;31504;51.716;9.184;2023-05-14T14:00:45;21.20;53.30
45803;DHT22;31504;51.716;9.184;2023-05-14T14:03:46;21.20;53.30
45803;DHT22;31504;51.716;9.184;2023-05-14T14:06:46;21.20;53.20
45803;DHT22;31504;51.716;9.184;2023-05-14T14:09:47;21.20;53.20
45803;DHT22;31504;51.716;9.184;2023-05-14T14:12:47;21.20;53.20
45803;DHT22;31504;51.716;9.184;2023-05-14T14:15:48;21.20;53.30
45803;DHT22;31504;51.716;9.184;2023-05-14T14:18:49;21.20;53.30
45803;DHT22;31504;51.716;9.184;2023-05-14T14:21:49;21.20;53.40
45803;DHT22;31504;51.716;9.184;2023-05-14T14:24:49;21.20;53.30
45803;DHT22;31504;51.716;9.184;2023-05-14T14:27:50;21.20;53.20
45803;DHT22;31504;51.716;9.184;2023-05-14T14:30:50;21.20;53.20
45803;DHT22;31504;51.716;9.184;2023-05-14T14:33:51;21.30;53.80
45803;DHT22;31504;51.716;9.184;2023-05-14T14:36:51;21.20;53.10
45803;DHT22;31504;51.716;9.184;2023-05-14T14:39:52;21.20;53.10
45803;DHT22;31504;51.716;9.184;2023-05-14T14:42:52;21.30;53.20
45803;DHT22;31504;51.716;9.184;2023-05-14T14:45:52;21.30;53.10
45803;DHT22;31504;51.716;9.184;2023-05-14T14:48:53;21.30;53.30
45803;DHT22;31504;51.716;9.184;2023-05-14T14:51:53;21.30;53.30
45803;DHT22;31504;51.716;9.184;2023-05-14T14:54:54;21.30;53.20
45803;DHT22;31504;51.716;9.184;2023-05-14T14:57:55;21.30;53.20
45803;DHT22;31504;51.716;9.184;2023-05-14T15:00:55;21.30;53.30
45803;DHT22;31504;51.716;9.184;2023-05-14T15:03:56;21.30;53.30
45803;DHT22;31504;51.716;9.184;2023-05-14T15:06:56;21.30;53.20
45803;DHT22;31504;51.716;9.184;2023-05-14T15:09:57;21.30;53.30
45803;DHT22;31504;51.716;9.184;2023-05-14T15:12:58;21.30;53.30
45803;DHT22;31504;51.716;9.184;2023-05-14T15:15:58;21.30;53.40
45803;DHT22;31504;51.716;9.184;2023-05-14T15:18:59;21.30;53.40
45803;DHT22;31504;51.716;9.184;2023-05-14T15:21:59;21.30;53.40
45803;DHT22;31504;51.716;9.184;2023-05-14T15:25:00;21.30;53.40
45803;DHT22;31504;51.716;9.184;2023-05-14T15:28:00;21.30;53.40
45803;DHT22;31504;51.716;9.184;2023-05-14T15:31:00;21.30;53.40
45803;DHT22;31504;51.716;9.184;2023-05-14T15:34:01;21.30;53.40
45803;DHT22;31504;51.716;9.184;2023-05-14T15:37:02;21.30;53.30
45803;DHT22;31504;51.716;9.184;2023-05-14T15:40:03;21.40;53.30
45803;DHT22;31504;51.716;9.184;2023-05-14T15:43:05;21.30;53.30
45803;DHT22;31504;51.716;9.184;2023-05-14T15:46:06;21.30;53.30
45803;DHT22;31504;51.716;9.184;2023-05-14T15:49:06;21.30;53.30
45803;DHT22;31504;51.716;9.184;2023-05-14T15:52:06;21.30;53.30
45803;DHT22;31504;51.716;9.184;2023-05-14T15:55:07;21.30;53.40
45803;DHT22;31504;51.716;9.184;2023-05-14T15:58:08;21.30;53.30
45803;DHT22;31504;51.716;9.184;2023-05-14T16:01:08;21.30;53.40
45803;DHT22;31504;51.716;9.184;2023-05-14T16:04:08;21.30;53.60
45803;DHT22;31504;51.716;9.184;2023-05-14T16:07:09;21.30;53.70
45803;DHT22;31504;51.716;9.184;2023-05-14T16:10:09;21.30;53.70
45803;DHT22;31504;51.716;9.184;2023-05-14T16:13:10;21.30;53.90
45803;DHT22;31504;51.716;9.184;2023-05-14T16:16:10;21.30;53.90
45803;DHT22;31504;51.716;9.184;2023-05-14T16:19:11;21.30;54.00
45803;DHT22;31504;51.716;9.184;2023-05-14T16:22:11;21.30;53.80
45803;DHT22;31504;51.716;9.184;2023-05-14T16:25:11;21.30;54.20
45803;DHT22;31504;51.716;9.184;2023-05-14T16:28:12;21.30;54.20
45803;DHT22;31504;51.716;9.184;2023-05-14T16:31:13;21.30;53.90
45803;DHT22;31504;51.716;9.184;2023-05-14T16:34:14;21.30;54.10
45803;DHT22;31504;51.716;9.184;2023-05-14T16:37:15;21.30;54.00
45803;DHT22;31504;51.716;9.184;2023-05-14T16:40:16;21.40;54.20
45803;DHT22;31504;51.716;9.184;2023-05-14T16:43:18;21.30;54.20
45803;DHT22;31504;51.716;9.184;2023-05-14T16:46:19;21.30;54.10
45803;DHT22;31504;51.716;9.184;2023-05-14T16:49:19;21.30;54.10
45803;DHT22;31504;51.716;9.184;2023-05-14T16:52:21;21.30;54.20
45803;DHT22;31504;51.716;9.184;2023-05-14T16:55:21;21.30;54.40
45803;DHT22;31504;51.716;9.184;2023-05-14T16:58:22;21.30;54.20
45803;DHT22;31504;51.716;9.184;2023-05-14T17:01:22;21.30;54.30
45803;DHT22;31504;51.716;9.184;2023-05-14T17:04:23;21.30;54.20
45803;DHT22;31504;51.716;9.184;2023-05-14T17:07:25;21.30;54.20
45803;DHT22;31504;51.716;9.184;2023-05-14T17:10:26;21.30;54.20
45803;DHT22;31504;51.716;9.184;2023-05-14T17:13:26;21.30;54.20
45803;DHT22;31504;51.716;9.184;2023-05-14T17:16:27;21.20;54.20
45803;DHT22;31504;51.716;9.184;2023-05-14T17:19:27;21.20;54.10
45803;DHT22;31504;51.716;9.184;2023-05-14T17:22:28;21.30;54.20
45803;DHT22;31504;51.716;9.184;2023-05-14T17:25:28;21.30;54.10
45803;DHT22;31504;51.716;9.184;2023-05-14T17:28:29;21.20;54.50
45803;DHT22;31504;51.716;9.184;2023-05-14T17:31:29;21.10;54.00
45803;DHT22;31504;51.716;9.184;2023-05-14T17:34:30;21.10;54.30
45803;DHT22;31504;51.716;9.184;2023-05-14T17:37:30;21.10;54.30
45803;DHT22;31504;51.716;9.184;2023-05-14T17:40:31;21.10;54.50
45803;DHT22;31504;51.716;9.184;2023-05-14T17:43:32;21.40;54.00
45803;DHT22;31504;51.716;9.184;2023-05-14T17:46:32;21.40;53.90
45803;DHT22;31504;51.716;9.184;2023-05-14T17:49:33;21.40;53.90
45803;DHT22;31504;51.716;9.184;2023-05-14T17:52:33;21.40;53.90
45803;DHT22;31504;51.716;9.184;2023-05-14T17:55:34;21.30;53.60
45803;DHT22;31504;51.716;9.184;2023-05-14T17:58:42;21.00;53.90
45803;DHT22;31504;51.716;9.184;2023-05-14T18:01:42;20.90;54.20
45803;DHT22;31504;51.716;9.184;2023-05-14T18:04:43;20.90;54.40
45803;DHT22;31504;51.716;9.184;2023-05-14T18:07:43;20.80;54.50
45803;DHT22;31504;51.716;9.184;2023-05-14T18:10:44;20.80;54.60
45803;DHT22;31504;51.716;9.184;2023-05-14T18:13:44;20.80;54.60
45803;DHT22;31504;51.716;9.184;2023-05-14T18:16:45;20.80;54.60
45803;DHT22;31504;51.716;9.184;2023-05-14T18:19:45;20.80;54.60
45803;DHT22;31504;51.716;9.184;2023-05-14T18:22:45;20.70;54.60
45803;DHT22;31504;51.716;9.184;2023-05-14T18:25:46;20.70;54.60
45803;DHT22;31504;51.716;9.184;2023-05-14T18:28:47;20.70;54.70
45803;DHT22;31504;51.716;9.184;2023-05-14T18:31:47;20.70;54.60
45803;DHT22;31504;51.716;9.184;2023-05-14T18:34:48;20.70;54.60
45803;DHT22;31504;51.716;9.184;2023-05-14T18:37:48;20.80;54.60
45803;DHT22;31504;51.716;9.184;2023-05-14T18:40:49;20.70;54.60
45803;DHT22;31504;51.716;9.184;2023-05-14T18:43:49;20.70;54.60
45803;DHT22;31504;51.716;9.184;2023-05-14T18:46:49;20.70;54.70
45803;DHT22;31504;51.716;9.184;2023-05-14T18:49:50;20.70;54.70
45803;DHT22;31504;51.716;9.184;2023-05-14T18:52:54;20.70;54.70
45803;DHT22;31504;51.716;9.184;2023-05-14T18:55:54;20.70;54.80
45803;DHT22;31504;51.716;9.184;2023-05-14T18:58:55;20.70;54.80
45803;DHT22;31504;51.716;9.184;2023-05-14T19:01:55;20.70;54.80